createdAt,value
2018-09-28T00:02:07.934Z,100006.00
2018-09-28T00:04:37.679Z,100004.00
2018-09-28T00:07:07.456Z,100003.00
2018-09-28T00:09:37.190Z,100011.00
2018-09-28T00:12:06.921Z,100010.00
2018-09-28T00:14:36.498Z,99994.00
2018-09-28T00:17:07.629Z,99997.00
2018-09-28T00:19:37.145Z,100000.00
2018-09-28T00:22:07.868Z,99998.00
2018-09-28T00:24:38.134Z,100002.00
2018-09-28T00:27:07.735Z,99998.00
2018-09-28T00:29:37.325Z,100001.00
2018-09-28T00:32:07.271Z,99996.00
2018-09-28T00:34:36.976Z,99991.00
2018-09-28T00:37:06.702Z,99988.00
2018-09-28T00:39:36.817Z,99979.00
2018-09-28T00:42:07.264Z,99974.00
2018-09-28T00:44:37.337Z,99975.00
2018-09-28T00:47:07.357Z,99976.00
2018-09-28T00:49:37.357Z,99968.00
2018-09-28T00:52:07.223Z,99978.00
2018-09-28T00:54:36.858Z,99975.00
2018-09-28T00:57:07.152Z,99962.00
2018-09-28T00:59:37.098Z,99972.00
2018-09-28T01:02:07.957Z,99960.00
2018-09-28T01:04:37.719Z,99960.00
2018-09-28T01:07:07.453Z,99960.00
2018-09-28T01:09:37.063Z,99960.00
2018-09-28T01:12:07.004Z,99955.00
2018-09-28T01:14:36.713Z,99947.00
2018-09-28T01:17:06.890Z,99950.00
2018-09-28T01:19:36.385Z,99944.00
2018-09-28T01:22:06.396Z,99892.00
2018-09-28T01:24:36.053Z,99954.00
2018-09-28T01:27:05.821Z,99941.00
2018-09-28T01:29:35.505Z,99951.00
2018-09-28T01:32:05.259Z,99942.00
2018-09-28T01:34:35.016Z,99940.00
2018-09-28T01:37:04.677Z,99948.00
2018-09-28T01:39:34.386Z,99944.00
2018-09-28T01:42:04.032Z,99946.00
2018-09-28T01:44:33.527Z,99942.00
2018-09-28T01:47:03.215Z,99944.00
2018-09-28T01:49:32.809Z,99943.00
2018-09-28T01:52:03.215Z,99937.00
2018-09-28T01:54:32.829Z,99942.00
2018-09-28T01:57:02.712Z,99938.00
2018-09-28T01:59:32.352Z,99935.00
2018-09-28T02:02:02.768Z,99935.00
2018-09-28T02:04:32.799Z,99936.00
2018-09-28T02:07:03.253Z,99933.00
2018-09-28T02:09:32.896Z,99943.00
2018-09-28T02:12:03.724Z,99933.00
2018-09-28T02:14:33.355Z,99934.00
2018-09-28T02:17:02.975Z,99934.00
2018-09-28T02:19:33.631Z,99935.00
2018-09-28T02:22:03.334Z,99934.00
2018-09-28T02:24:33.331Z,99919.00
2018-09-28T02:27:02.928Z,99922.00
2018-09-28T02:29:32.529Z,99913.00
2018-09-28T02:32:02.041Z,99925.00
2018-09-28T02:34:32.095Z,99921.00
2018-09-28T02:37:02.014Z,99925.00
2018-09-28T02:39:32.166Z,99924.00
2018-09-28T02:42:05.192Z,99929.00
2018-09-28T02:44:34.767Z,99921.00
2018-09-28T02:47:04.284Z,99922.00
2018-09-28T02:49:33.858Z,99923.00
2018-09-28T02:52:04.481Z,99923.00
2018-09-28T02:54:34.116Z,99928.00
2018-09-28T02:57:04.355Z,99923.00
2018-09-28T02:59:33.938Z,99917.00
2018-09-28T03:02:03.970Z,99910.00
2018-09-28T03:04:34.236Z,99920.00
2018-09-28T03:07:03.787Z,99922.00
2018-09-28T03:09:34.256Z,99921.00
2018-09-28T03:12:04.066Z,99908.00
2018-09-28T03:14:33.794Z,99920.00
2018-09-28T03:17:03.350Z,99915.00
2018-09-28T03:19:32.894Z,99920.00
2018-09-28T03:22:02.534Z,99926.00
2018-09-28T03:24:32.093Z,99926.00
2018-09-28T03:27:01.862Z,99929.00
2018-09-28T03:29:31.478Z,99930.00
2018-09-28T03:32:01.405Z,99929.00
2018-09-28T03:34:31.196Z,99938.00
2018-09-28T03:37:01.280Z,99940.00
2018-09-28T03:39:31.760Z,99939.00
2018-09-28T03:42:01.322Z,99938.00
2018-09-28T03:44:30.998Z,99941.00
2018-09-28T03:47:00.814Z,99945.00
2018-09-28T03:49:31.219Z,99939.00
2018-09-28T03:52:01.312Z,99930.00
2018-09-28T03:54:31.429Z,99931.00
2018-09-28T03:57:00.912Z,99939.00
2018-09-28T03:59:30.902Z,99935.00
2018-09-28T04:02:01.661Z,99942.00
2018-09-28T04:04:31.404Z,99937.00
2018-09-28T04:07:00.953Z,99939.00
2018-09-28T04:09:30.565Z,99936.00
2018-09-28T04:12:00.344Z,99932.00
2018-09-28T04:14:30.802Z,99934.00
2018-09-28T04:17:00.365Z,99934.00
2018-09-28T04:19:30.364Z,99937.00
2018-09-28T04:22:01.338Z,99938.00
2018-09-28T04:24:32.517Z,99943.00
2018-09-28T04:27:02.017Z,99955.00
2018-09-28T04:29:32.390Z,99947.00
2018-09-28T04:32:02.543Z,99953.00
2018-09-28T04:34:32.449Z,99956.00
2018-09-28T04:37:02.089Z,99939.00
2018-09-28T04:39:31.640Z,99944.00
2018-09-28T04:42:01.380Z,99951.00
2018-09-28T04:44:32.347Z,99953.00
2018-09-28T04:47:03.064Z,99951.00
2018-09-28T04:49:32.624Z,99950.00
2018-09-28T04:52:02.232Z,99953.00
2018-09-28T04:54:32.500Z,99942.00
2018-09-28T04:57:02.229Z,99950.00
2018-09-28T04:59:32.141Z,99955.00
2018-09-28T05:02:01.692Z,99962.00
2018-09-28T05:04:31.202Z,99950.00
2018-09-28T05:07:00.839Z,99965.00
2018-09-28T05:09:30.290Z,99968.00
2018-09-28T05:11:59.824Z,99969.00
2018-09-28T05:14:29.725Z,99972.00
2018-09-28T05:16:59.317Z,99972.00
2018-09-28T05:19:29.677Z,99984.00
2018-09-28T05:21:59.320Z,99976.00
2018-09-28T05:24:29.009Z,99980.00
2018-09-28T05:26:58.515Z,99987.00
2018-09-28T05:29:28.140Z,99996.00
2018-09-28T05:31:58.141Z,99996.00
2018-09-28T05:34:27.602Z,99999.00
2018-09-28T05:36:57.282Z,100003.00
2018-09-28T05:39:27.244Z,100007.00
2018-09-28T05:41:57.417Z,100012.00
2018-09-28T05:44:27.092Z,100012.00
2018-09-28T05:46:57.263Z,100011.00
2018-09-28T05:49:26.791Z,100007.00
2018-09-28T05:51:56.385Z,100017.00
2018-09-28T05:54:26.083Z,100009.00
2018-09-28T05:56:55.952Z,100006.00
2018-09-28T05:59:30.545Z,100005.00
2018-09-28T06:02:05.351Z,100006.00
2018-09-28T06:04:40.257Z,100006.00
2018-09-28T06:07:10.008Z,99996.00
2018-09-28T06:09:40.235Z,100000.00
2018-09-28T06:12:09.813Z,100002.00
2018-09-28T06:14:39.805Z,100010.00
2018-09-28T06:17:10.656Z,100012.00
2018-09-28T06:19:40.345Z,100019.00
2018-09-28T06:22:09.792Z,100019.00
2018-09-28T06:24:39.621Z,100020.00
2018-09-28T06:27:09.198Z,100013.00
2018-09-28T06:29:38.644Z,100013.00
2018-09-28T06:32:08.778Z,100019.00
2018-09-28T06:34:38.728Z,100019.00
2018-09-28T06:37:08.439Z,100012.00
2018-09-28T06:39:38.318Z,100024.00
2018-09-28T06:42:08.238Z,100030.00
2018-09-28T06:44:38.134Z,100029.00
2018-09-28T06:47:08.071Z,100025.00
2018-09-28T06:49:37.688Z,100034.00
2018-09-28T06:52:07.227Z,100041.00
2018-09-28T06:54:36.963Z,100043.00
2018-09-28T06:57:06.677Z,100050.00
2018-09-28T06:59:37.567Z,100051.00
2018-09-28T07:02:07.264Z,100058.00
2018-09-28T07:04:36.754Z,100067.00
2018-09-28T07:07:06.563Z,100077.00
2018-09-28T07:09:36.215Z,100075.00
2018-09-28T07:12:05.867Z,100076.00
2018-09-28T07:14:35.474Z,100069.00
2018-09-28T07:17:05.444Z,100080.00
2018-09-28T07:19:34.984Z,100075.00
2018-09-28T07:22:04.620Z,100070.00
2018-09-28T07:24:34.381Z,100079.00
2018-09-28T07:27:03.889Z,100068.00
2018-09-28T07:29:34.317Z,100069.00
2018-09-28T07:32:05.433Z,100085.00
2018-09-28T07:34:35.051Z,100083.00
2018-09-28T07:37:06.576Z,100096.00
2018-09-28T07:39:35.958Z,100095.00
2018-09-28T07:42:05.842Z,100087.00
2018-09-28T07:44:36.719Z,100103.00
2018-09-28T07:47:06.825Z,100102.00
2018-09-28T07:49:38.728Z,100108.00
2018-09-28T07:52:08.430Z,100112.00
2018-09-28T07:54:42.213Z,100107.00
2018-09-28T07:57:12.102Z,100109.00
2018-09-28T07:59:41.881Z,100113.00
2018-09-28T08:02:12.117Z,100119.00
2018-09-28T08:04:41.931Z,100119.00
2018-09-28T08:07:11.434Z,100130.00
2018-09-28T08:09:41.158Z,100125.00
2018-09-28T08:12:10.782Z,100133.00
2018-09-28T08:14:40.341Z,100131.00
2018-09-28T08:17:10.710Z,100131.00
2018-09-28T08:19:40.645Z,100139.00
2018-09-28T08:22:10.511Z,100142.00
2018-09-28T08:24:40.959Z,100140.00
2018-09-28T08:27:10.534Z,100147.00
2018-09-28T08:29:40.215Z,100147.00
2018-09-28T08:32:09.776Z,100146.00
2018-09-28T08:34:39.369Z,100142.00
2018-09-28T08:37:09.008Z,100155.00
2018-09-28T08:39:38.707Z,100169.00
2018-09-28T08:42:09.968Z,100169.00
2018-09-28T08:44:39.698Z,100167.00
2018-09-28T08:47:09.468Z,100176.00
2018-09-28T08:49:38.959Z,100178.00
2018-09-28T08:52:08.896Z,100175.00
2018-09-28T08:54:38.570Z,100170.00
2018-09-28T08:57:08.407Z,100184.00
2018-09-28T08:59:38.665Z,100183.00
2018-09-28T09:02:08.682Z,100192.00
2018-09-28T09:04:40.053Z,100189.00
2018-09-28T09:07:10.480Z,100197.00
2018-09-28T09:09:41.292Z,100191.00
2018-09-28T09:12:10.773Z,100194.00
2018-09-28T09:14:40.367Z,100199.00
2018-09-28T09:17:10.005Z,100199.00
2018-09-28T09:19:40.036Z,100194.00
2018-09-28T09:22:09.685Z,100209.00
2018-09-28T09:24:39.201Z,100210.00
2018-09-28T09:27:09.134Z,100205.00
2018-09-28T09:29:40.053Z,100210.00
2018-09-28T09:32:09.716Z,100213.00
2018-09-28T09:34:39.340Z,100213.00
2018-09-28T09:37:08.865Z,100209.00
2018-09-28T09:39:38.628Z,100208.00
2018-09-28T09:42:09.868Z,100220.00
2018-09-28T09:44:39.581Z,100215.00
2018-09-28T09:47:09.161Z,100222.00
2018-09-28T09:49:39.224Z,100136.00
2018-09-28T09:52:10.191Z,100228.00
2018-09-28T09:54:40.625Z,100230.00
2018-09-28T09:57:10.427Z,100240.00
2018-09-28T09:59:40.073Z,100238.00
2018-09-28T10:02:15.324Z,100247.00
2018-09-28T10:04:44.777Z,100244.00
2018-09-28T10:07:15.213Z,100243.00
2018-09-28T10:09:45.198Z,100247.00
2018-09-28T10:12:14.695Z,100247.00
2018-09-28T10:14:44.390Z,100252.00
2018-09-28T10:17:13.919Z,100253.00
2018-09-28T10:19:43.469Z,100255.00
2018-09-28T10:22:12.955Z,100246.00
2018-09-28T10:24:42.518Z,100250.00
2018-09-28T10:27:12.419Z,100255.00
2018-09-28T10:29:41.856Z,100251.00
2018-09-28T10:32:12.182Z,100246.00
2018-09-28T10:34:47.291Z,100250.00
2018-09-28T10:37:16.927Z,100255.00
2018-09-28T10:39:47.430Z,100255.00
2018-09-28T10:42:17.201Z,100256.00
2018-09-28T10:44:46.640Z,100256.00
2018-09-28T10:47:16.447Z,100248.00
2018-09-28T10:49:46.012Z,100258.00
2018-09-28T10:52:15.614Z,100254.00
2018-09-28T10:54:46.329Z,100252.00
2018-09-28T10:57:17.290Z,100252.00
2018-09-28T10:59:47.109Z,100254.00
2018-09-28T11:02:17.091Z,100251.00
2018-09-28T11:04:46.886Z,100254.00
2018-09-28T11:07:16.934Z,100254.00
2018-09-28T11:09:46.975Z,100249.00
2018-09-28T11:12:16.934Z,100251.00
2018-09-28T11:14:47.192Z,100248.00
2018-09-28T11:17:17.795Z,100257.00
2018-09-28T11:19:48.725Z,100257.00
2018-09-28T11:22:21.421Z,100256.00
2018-09-28T11:24:51.108Z,100256.00
2018-09-28T11:27:20.794Z,100259.00
2018-09-28T11:29:50.548Z,100263.00
2018-09-28T11:32:21.056Z,100263.00
2018-09-28T11:34:51.259Z,100262.00
2018-09-28T11:37:21.078Z,100264.00
2018-09-28T11:39:51.042Z,100264.00
2018-09-28T11:42:20.693Z,100260.00
2018-09-28T11:44:51.268Z,100260.00
2018-09-28T11:47:20.948Z,100256.00
2018-09-28T11:49:51.813Z,100256.00
2018-09-28T11:52:21.605Z,100250.00
2018-09-28T11:54:51.362Z,100255.00
2018-09-28T11:57:20.939Z,100261.00
2018-09-28T11:59:50.566Z,100255.00
2018-09-28T12:02:20.998Z,100258.00
2018-09-28T12:04:53.293Z,100251.00
2018-09-28T12:07:24.315Z,100244.00
2018-09-28T12:09:58.209Z,100251.00
2018-09-28T12:12:27.964Z,100250.00
2018-09-28T12:14:59.570Z,100245.00
2018-09-28T12:17:33.497Z,100244.00
2018-09-28T12:20:03.732Z,100251.00
2018-09-28T12:22:33.475Z,100245.00
2018-09-28T12:25:03.120Z,100247.00
2018-09-28T12:27:32.869Z,100248.00
2018-09-28T12:30:03.088Z,100245.00
2018-09-28T12:32:33.194Z,100241.00
2018-09-28T12:35:02.956Z,100242.00
2018-09-28T12:37:32.419Z,100237.00
2018-09-28T12:40:02.112Z,100238.00
2018-09-28T12:42:31.651Z,100237.00
2018-09-28T12:45:02.698Z,100249.00
2018-09-28T12:47:32.314Z,100243.00
2018-09-28T12:50:01.805Z,100243.00
2018-09-28T12:52:32.337Z,100239.00
2018-09-28T12:55:02.642Z,100239.00
2018-09-28T12:57:32.192Z,100239.00
2018-09-28T13:00:01.741Z,100238.00
2018-09-28T13:02:31.790Z,100246.00
2018-09-28T13:05:05.009Z,100239.00
2018-09-28T13:07:35.454Z,100227.00
2018-09-28T13:10:05.258Z,100228.00
2018-09-28T13:12:34.968Z,100227.00
2018-09-28T13:15:04.765Z,100238.00
2018-09-28T13:17:34.189Z,100229.00
2018-09-28T13:20:04.082Z,100231.00
2018-09-28T13:22:33.536Z,100230.00
2018-09-28T13:25:03.030Z,100235.00
2018-09-28T13:27:32.730Z,100231.00
2018-09-28T13:30:02.311Z,100233.00
2018-09-28T13:32:31.802Z,100234.00
2018-09-28T13:35:01.345Z,100230.00
2018-09-28T13:37:30.798Z,100225.00
2018-09-28T13:40:00.510Z,100224.00
2018-09-28T13:42:30.043Z,100224.00
2018-09-28T13:44:59.745Z,100220.00
2018-09-28T13:47:29.157Z,100217.00
2018-09-28T13:49:58.749Z,100225.00
2018-09-28T13:52:28.304Z,100232.00
2018-09-28T13:54:59.769Z,100232.00
2018-09-28T13:57:29.484Z,100241.00
2018-09-28T14:00:00.051Z,100235.00
2018-09-28T14:02:29.896Z,100234.00
2018-09-28T14:04:59.836Z,100241.00
2018-09-28T14:07:29.501Z,100251.00
2018-09-28T14:09:59.271Z,100255.00
2018-09-28T14:12:28.933Z,100247.00
2018-09-28T14:14:58.516Z,100252.00
2018-09-28T14:17:28.073Z,100247.00
2018-09-28T14:19:57.786Z,100236.00
2018-09-28T14:22:27.927Z,100244.00
2018-09-28T14:24:58.658Z,100249.00
2018-09-28T14:27:28.066Z,100245.00
2018-09-28T14:29:57.518Z,100249.00
2018-09-28T14:32:27.286Z,100252.00
2018-09-28T14:34:57.902Z,100258.00
2018-09-28T14:37:27.390Z,100264.00
2018-09-28T14:39:57.052Z,100267.00
2018-09-28T14:42:27.092Z,100263.00
2018-09-28T14:44:57.540Z,100268.00
2018-09-28T14:47:26.965Z,100264.00
2018-09-28T14:49:56.785Z,100266.00
2018-09-28T14:52:26.953Z,100262.00
2018-09-28T14:54:56.397Z,100267.00
2018-09-28T14:57:25.831Z,100274.00
2018-09-28T14:59:55.452Z,100271.00
2018-09-28T15:02:25.135Z,100274.00
2018-09-28T15:04:54.637Z,100273.00
2018-09-28T15:07:24.290Z,100275.00
2018-09-28T15:09:53.989Z,100278.00
2018-09-28T15:12:23.488Z,100275.00
2018-09-28T15:14:52.975Z,100279.00
2018-09-28T15:17:23.673Z,100282.00
2018-09-28T15:19:53.247Z,100288.00
2018-09-28T15:22:22.805Z,100280.00
2018-09-28T15:24:52.331Z,100287.00
2018-09-28T15:27:22.077Z,100289.00
2018-09-28T15:29:51.547Z,100299.00
2018-09-28T15:32:21.696Z,100302.00
2018-09-28T15:34:51.160Z,100315.00
2018-09-28T15:37:21.088Z,100300.00
2018-09-28T15:39:50.858Z,100302.00
2018-09-28T15:42:20.369Z,100304.00
2018-09-28T15:44:50.216Z,100310.00
2018-09-28T15:47:19.613Z,100303.00
2018-09-28T15:49:49.301Z,100314.00
2018-09-28T15:52:19.019Z,100308.00
2018-09-28T15:54:48.486Z,100299.00
2018-09-28T15:57:18.333Z,100306.00
2018-09-28T15:59:47.804Z,100319.00
2018-09-28T16:02:17.390Z,100316.00
2018-09-28T16:04:47.301Z,100318.00
2018-09-28T16:07:17.752Z,100332.00
2018-09-28T16:09:49.118Z,100334.00
2018-09-28T16:12:18.941Z,100335.00
2018-09-28T16:14:49.904Z,100335.00
2018-09-28T16:17:20.476Z,100342.00
2018-09-28T16:19:50.922Z,100342.00
2018-09-28T16:22:20.750Z,100345.00
2018-09-28T16:24:50.767Z,100339.00
2018-09-28T16:27:20.458Z,100347.00
2018-09-28T16:29:50.590Z,100354.00
2018-09-28T16:32:20.313Z,100360.00
2018-09-28T16:34:50.095Z,100354.00
2018-09-28T16:37:21.182Z,100354.00
2018-09-28T16:39:51.169Z,100364.00
2018-09-28T16:42:21.167Z,100359.00
2018-09-28T16:44:51.531Z,100358.00
2018-09-28T16:47:21.285Z,100365.00
2018-09-28T16:49:52.453Z,100365.00
2018-09-28T16:52:23.841Z,100372.00
2018-09-28T16:54:54.723Z,100378.00
2018-09-28T16:57:24.429Z,100384.00
2018-09-28T16:59:54.620Z,100386.00
2018-09-28T17:02:25.643Z,100389.00
2018-09-28T17:04:56.566Z,100400.00
2018-09-28T17:07:27.451Z,100397.00
2018-09-28T17:09:57.264Z,100406.00
2018-09-28T17:12:28.641Z,100417.00
2018-09-28T17:14:59.619Z,100412.00
2018-09-28T17:17:29.094Z,100401.00
2018-09-28T17:19:59.356Z,100408.00
2018-09-28T17:22:30.137Z,100408.00
2018-09-28T17:24:59.663Z,100406.00
2018-09-28T17:27:29.973Z,100415.00
2018-09-28T17:29:59.841Z,100416.00
2018-09-28T17:32:31.363Z,100423.00
2018-09-28T17:35:01.005Z,100431.00
2018-09-28T17:37:30.952Z,100441.00
2018-09-28T17:40:01.253Z,100440.00
2018-09-28T17:42:31.279Z,100446.00
2018-09-28T17:45:00.880Z,100447.00
2018-09-28T17:47:30.507Z,100454.00
2018-09-28T17:50:00.336Z,100452.00
2018-09-28T17:52:30.567Z,100460.00
2018-09-28T17:55:02.132Z,100467.00
2018-09-28T17:57:31.903Z,100464.00
2018-09-28T18:00:01.623Z,100476.00
2018-09-28T18:02:31.197Z,100479.00
2018-09-28T18:05:01.267Z,100493.00
2018-09-28T18:07:31.526Z,100497.00
2018-09-28T18:10:01.317Z,100501.00
2018-09-28T18:14:51.531Z,100505.00
2018-09-28T18:17:23.634Z,100510.00
2018-09-28T18:19:53.967Z,100513.00
2018-09-28T18:22:23.787Z,100517.00
2018-09-28T18:24:54.102Z,100513.00
2018-09-28T18:27:24.999Z,100528.00
2018-09-28T18:29:55.626Z,100531.00
2018-09-28T18:32:26.310Z,100533.00
2018-09-28T18:34:56.215Z,100531.00
2018-09-28T18:37:25.779Z,100534.00
2018-09-28T18:39:55.677Z,100528.00
2018-09-28T18:42:26.216Z,100530.00
2018-09-28T18:44:56.101Z,100539.00
2018-09-28T18:47:27.557Z,100542.00
2018-09-28T18:49:57.144Z,100543.00
2018-09-28T18:52:27.010Z,100536.00
2018-09-28T18:54:57.433Z,100538.00
2018-09-28T18:57:27.610Z,100551.00
2018-09-28T18:59:57.773Z,100550.00
2018-09-28T19:02:27.510Z,100563.00
2018-09-28T19:04:57.323Z,100554.00
2018-09-28T19:07:28.160Z,100559.00
2018-09-28T19:09:57.960Z,100563.00
2018-09-28T19:12:27.825Z,100559.00
2018-09-28T19:14:58.830Z,100570.00
2018-09-28T19:17:28.579Z,100575.00
2018-09-28T19:20:00.139Z,100573.00
2018-09-28T19:22:32.590Z,100580.00
2018-09-28T19:25:04.051Z,100579.00
2018-09-28T19:27:35.036Z,100576.00
2018-09-28T19:30:07.528Z,100574.00
2018-09-28T19:32:38.952Z,100588.00
2018-09-28T19:35:11.056Z,100582.00
2018-09-28T19:37:41.133Z,100590.00
2018-09-28T19:40:11.926Z,100593.00
2018-09-28T19:42:41.568Z,100595.00
2018-09-28T19:45:11.993Z,100601.00
2018-09-28T19:47:42.083Z,100606.00
2018-09-28T19:50:13.147Z,100600.00
2018-09-28T19:52:43.544Z,100605.00
2018-09-28T19:55:13.700Z,100618.00
2018-09-28T19:57:44.296Z,100627.00
2018-09-28T20:00:14.996Z,100620.00
2018-09-28T20:02:44.601Z,100632.00
2018-09-28T20:05:14.922Z,100638.00
2018-09-28T20:07:45.070Z,100637.00
2018-09-28T20:10:14.559Z,100640.00
2018-09-28T20:12:44.827Z,100642.00
2018-09-28T20:15:14.484Z,100644.00
2018-09-28T20:17:44.441Z,100635.00
2018-09-28T20:20:14.132Z,100637.00
2018-09-28T20:22:44.769Z,100643.00
2018-09-28T20:25:14.395Z,100643.00
2018-09-28T20:27:45.091Z,100640.00
2018-09-28T20:30:14.970Z,100648.00
2018-09-28T20:32:44.820Z,100651.00
2018-09-28T20:35:14.517Z,100652.00
2018-09-28T20:37:44.327Z,100654.00
2018-09-28T20:40:14.669Z,100661.00
2018-09-28T20:42:44.945Z,100667.00
2018-09-28T20:45:15.406Z,100660.00
2018-09-28T20:47:45.630Z,100664.00
2018-09-28T20:50:15.604Z,100665.00
2018-09-28T20:52:45.637Z,100669.00
2018-09-28T20:55:16.424Z,100669.00
2018-09-28T20:57:46.798Z,100670.00
2018-09-28T21:00:18.345Z,100672.00
2018-09-28T21:02:49.344Z,100664.00
2018-09-28T21:05:19.833Z,100665.00
2018-09-28T21:07:50.329Z,100661.00
2018-09-28T21:10:20.176Z,100663.00
2018-09-28T21:12:50.333Z,100671.00
2018-09-28T21:15:21.713Z,100658.00
2018-09-28T21:17:51.884Z,100674.00
2018-09-28T21:20:23.027Z,100668.00
2018-09-28T21:22:52.859Z,100673.00
2018-09-28T21:25:22.421Z,100670.00
2018-09-28T21:27:52.493Z,100670.00
2018-09-28T21:30:23.900Z,100665.00
2018-09-28T21:32:53.756Z,100667.00
2018-09-28T21:35:23.566Z,100671.00
2018-09-28T21:37:54.290Z,100679.00
2018-09-28T21:40:25.646Z,100685.00
2018-09-28T21:42:55.285Z,100688.00
2018-09-28T21:45:26.020Z,100686.00
2018-09-28T21:47:55.754Z,100691.00
2018-09-28T21:50:26.826Z,100691.00
2018-09-28T21:52:57.325Z,100696.00
2018-09-28T21:55:27.256Z,100700.00
2018-09-28T21:57:58.030Z,100702.00
2018-09-28T22:00:28.300Z,100703.00
2018-09-28T22:02:58.661Z,100705.00
2018-09-28T22:05:29.331Z,100705.00
2018-09-28T22:07:59.731Z,100713.00
2018-09-28T22:10:29.542Z,100709.00
2018-09-28T22:12:59.313Z,100726.00
2018-09-28T22:15:29.441Z,100716.00
2018-09-28T22:18:01.661Z,100716.00
2018-09-28T22:20:31.306Z,100714.00
2018-09-28T22:23:01.854Z,100720.00
2018-09-28T22:25:32.432Z,100718.00
2018-09-28T22:28:02.318Z,100726.00
2018-09-28T22:30:35.023Z,100721.00
2018-09-28T22:33:05.727Z,100721.00
2018-09-28T22:35:36.168Z,100722.00
2018-09-28T22:38:06.387Z,100724.00
2018-09-28T22:40:36.355Z,100677.00
2018-09-28T22:43:06.515Z,100719.00
2018-09-28T22:45:36.194Z,100724.00
2018-09-28T22:48:07.321Z,100723.00
2018-09-28T22:50:39.063Z,100720.00
2018-09-28T22:53:10.844Z,100723.00
2018-09-28T22:55:41.331Z,100723.00
2018-09-28T22:58:12.093Z,100731.00
2018-09-28T23:00:42.353Z,100735.00
2018-09-28T23:03:12.295Z,100733.00
2018-09-28T23:05:42.088Z,100730.00
2018-09-28T23:08:12.253Z,100734.00
2018-09-28T23:10:43.261Z,100743.00
2018-09-28T23:13:13.615Z,100742.00
2018-09-28T23:15:43.489Z,100746.00
2018-09-28T23:18:13.534Z,100747.00
2018-09-28T23:20:43.409Z,100754.00
2018-09-28T23:23:14.376Z,100755.00
2018-09-28T23:25:43.928Z,100761.00
2018-09-28T23:28:14.533Z,100757.00
2018-09-28T23:30:44.823Z,100758.00
2018-09-28T23:33:14.706Z,100756.00
2018-09-28T23:35:45.353Z,100763.00
2018-09-28T23:38:18.087Z,100708.00
2018-09-28T23:40:47.893Z,100773.00
2018-09-28T23:43:18.349Z,100773.00
2018-09-28T23:45:48.901Z,100773.00
2018-09-28T23:48:19.255Z,100772.00
2018-09-28T23:50:49.112Z,100777.00
2018-09-28T23:53:19.656Z,100776.00
2018-09-28T23:55:49.840Z,100779.00
2018-09-28T23:58:19.813Z,100780.00
